sensor_id;sensor_type;location;lat;lon;timestamp;temperature;humidity
74923;HTU21D;64715;44.760;37.678;2023-06-19T00:00:59;21.31;73.81
74923;HTU21D;64715;44.760;37.678;2023-06-19T00:02:00;21.36;73.66
74923;HTU21D;64715;44.760;37.678;2023-06-19T00:03:01;21.36;73.75
74923;HTU21D;64715;44.760;37.678;2023-06-19T00:04:02;21.37;73.66
74923;HTU21D;64715;44.760;37.678;2023-06-19T00:05:04;21.38;73.63
74923;HTU21D;64715;44.760;37.678;2023-06-19T00:06:06;21.42;73.66
74923;HTU21D;64715;44.760;37.678;2023-06-19T00:07:06;21.42;73.72
74923;HTU21D;64715;44.760;37.678;2023-06-19T00:08:07;21.45;73.66
74923;HTU21D;64715;44.760;37.678;2023-06-19T00:09:08;21.45;73.70
74923;HTU21D;64715;44.760;37.678;2023-06-19T00:10:09;21.46;73.54
74923;HTU21D;64715;44.760;37.678;2023-06-19T00:11:12;21.45;73.51
74923;HTU21D;64715;44.760;37.678;2023-06-19T00:12:13;21.44;73.57
74923;HTU21D;64715;44.760;37.678;2023-06-19T00:13:14;21.45;73.57
74923;HTU21D;64715;44.760;37.678;2023-06-19T00:14:17;21.43;73.48
74923;HTU21D;64715;44.760;37.678;2023-06-19T00:15:18;21.43;73.50
74923;HTU21D;64715;44.760;37.678;2023-06-19T00:16:19;21.42;73.46
74923;HTU21D;64715;44.760;37.678;2023-06-19T00:17:20;21.40;73.51
74923;HTU21D;64715;44.760;37.678;2023-06-19T00:18:21;21.38;73.32
74923;HTU21D;64715;44.760;37.678;2023-06-19T00:19:22;21.37;73.40
74923;HTU21D;64715;44.760;37.678;2023-06-19T00:20:23;21.35;73.42
74923;HTU21D;64715;44.760;37.678;2023-06-19T00:21:25;21.32;73.34
74923;HTU21D;64715;44.760;37.678;2023-06-19T00:22:26;21.32;73.48
74923;HTU21D;64715;44.760;37.678;2023-06-19T00:23:27;21.31;73.46
74923;HTU21D;64715;44.760;37.678;2023-06-19T00:24:28;21.30;73.48
74923;HTU21D;64715;44.760;37.678;2023-06-19T00:25:29;21.29;73.48
74923;HTU21D;64715;44.760;37.678;2023-06-19T00:26:31;21.27;73.49
74923;HTU21D;64715;44.760;37.678;2023-06-19T00:27:32;21.24;73.59
74923;HTU21D;64715;44.760;37.678;2023-06-19T00:28:35;21.24;73.69
74923;HTU21D;64715;44.760;37.678;2023-06-19T00:29:39;21.24;73.76
74923;HTU21D;64715;44.760;37.678;2023-06-19T00:30:41;21.23;73.87
74923;HTU21D;64715;44.760;37.678;2023-06-19T00:31:42;21.23;73.78
74923;HTU21D;64715;44.760;37.678;2023-06-19T00:32:43;21.25;73.94
74923;HTU21D;64715;44.760;37.678;2023-06-19T00:33:47;21.24;74.11
74923;HTU21D;64715;44.760;37.678;2023-06-19T00:34:48;21.25;74.09
74923;HTU21D;64715;44.760;37.678;2023-06-19T00:35:52;21.25;74.24
74923;HTU21D;64715;44.760;37.678;2023-06-19T00:36:54;21.27;74.15
74923;HTU21D;64715;44.760;37.678;2023-06-19T00:37:57;21.25;74.25
74923;HTU21D;64715;44.760;37.678;2023-06-19T00:39:01;21.27;74.11
74923;HTU21D;64715;44.760;37.678;2023-06-19T00:40:03;21.24;74.21
74923;HTU21D;64715;44.760;37.678;2023-06-19T00:41:05;21.25;74.19
74923;HTU21D;64715;44.760;37.678;2023-06-19T00:42:07;21.25;74.02
74923;HTU21D;64715;44.760;37.678;2023-06-19T00:43:08;21.24;74.13
74923;HTU21D;64715;44.760;37.678;2023-06-19T00:44:09;21.23;74.07
74923;HTU21D;64715;44.760;37.678;2023-06-19T00:45:10;21.24;74.09
74923;HTU21D;64715;44.760;37.678;2023-06-19T00:46:11;21.22;74.30
74923;HTU21D;64715;44.760;37.678;2023-06-19T00:47:13;21.23;74.07
74923;HTU21D;64715;44.760;37.678;2023-06-19T00:48:15;21.21;74.09
74923;HTU21D;64715;44.760;37.678;2023-06-19T00:49:16;21.20;74.02
74923;HTU21D;64715;44.760;37.678;2023-06-19T00:50:17;21.19;74.05
74923;HTU21D;64715;44.760;37.678;2023-06-19T00:51:20;21.18;73.99
74923;HTU21D;64715;44.760;37.678;2023-06-19T00:52:21;21.17;73.89
74923;HTU21D;64715;44.760;37.678;2023-06-19T00:53:23;21.15;73.96
74923;HTU21D;64715;44.760;37.678;2023-06-19T00:54:25;21.14;74.02
74923;HTU21D;64715;44.760;37.678;2023-06-19T00:55:28;21.10;73.84
74923;HTU21D;64715;44.760;37.678;2023-06-19T00:56:32;21.08;73.86
74923;HTU21D;64715;44.760;37.678;2023-06-19T00:57:36;21.07;73.86
74923;HTU21D;64715;44.760;37.678;2023-06-19T00:58:37;21.05;73.86
74923;HTU21D;64715;44.760;37.678;2023-06-19T00:59:39;21.04;74.02
74923;HTU21D;64715;44.760;37.678;2023-06-19T01:00:41;21.02;74.09
74923;HTU21D;64715;44.760;37.678;2023-06-19T01:01:43;21.03;74.02
74923;HTU21D;64715;44.760;37.678;2023-06-19T01:02:44;21.03;74.13
74923;HTU21D;64715;44.760;37.678;2023-06-19T01:03:45;21.02;74.18
74923;HTU21D;64715;44.760;37.678;2023-06-19T01:04:46;21.02;74.33
74923;HTU21D;64715;44.760;37.678;2023-06-19T01:05:47;21.02;74.41
74923;HTU21D;64715;44.760;37.678;2023-06-19T01:06:56;21.03;74.48
74923;HTU21D;64715;44.760;37.678;2023-06-19T01:08:03;21.04;74.44
74923;HTU21D;64715;44.760;37.678;2023-06-19T01:09:08;21.05;74.51
74923;HTU21D;64715;44.760;37.678;2023-06-19T01:10:17;21.06;74.53
74923;HTU21D;64715;44.760;37.678;2023-06-19T01:11:22;21.07;74.51
74923;HTU21D;64715;44.760;37.678;2023-06-19T01:12:32;21.07;74.62
74923;HTU21D;64715;44.760;37.678;2023-06-19T01:13:39;21.08;74.51
74923;HTU21D;64715;44.760;37.678;2023-06-19T01:14:56;21.08;74.47
74923;HTU21D;64715;44.760;37.678;2023-06-19T01:15:58;21.08;74.37
74923;HTU21D;64715;44.760;37.678;2023-06-19T01:17:00;21.08;74.29
74923;HTU21D;64715;44.760;37.678;2023-06-19T01:18:02;21.08;74.26
74923;HTU21D;64715;44.760;37.678;2023-06-19T01:19:04;21.09;74.41
74923;HTU21D;64715;44.760;37.678;2023-06-19T01:20:07;21.08;74.29
74923;HTU21D;64715;44.760;37.678;2023-06-19T01:21:14;21.09;74.35
74923;HTU21D;64715;44.760;37.678;2023-06-19T01:22:28;21.08;74.38
74923;HTU21D;64715;44.760;37.678;2023-06-19T01:23:33;21.08;74.13
74923;HTU21D;64715;44.760;37.678;2023-06-19T01:24:34;21.08;74.12
74923;HTU21D;64715;44.760;37.678;2023-06-19T01:25:36;21.06;74.11
74923;HTU21D;64715;44.760;37.678;2023-06-19T01:26:37;21.06;74.10
74923;HTU21D;64715;44.760;37.678;2023-06-19T01:27:39;21.05;74.15
74923;HTU21D;64715;44.760;37.678;2023-06-19T01:28:42;21.02;74.05
74923;HTU21D;64715;44.760;37.678;2023-06-19T01:29:43;21.03;74.06
74923;HTU21D;64715;44.760;37.678;2023-06-19T01:30:44;21.00;73.96
74923;HTU21D;64715;44.760;37.678;2023-06-19T01:33:31;20.92;73.83
74923;HTU21D;64715;44.760;37.678;2023-06-19T01:34:33;20.89;73.76
74923;HTU21D;64715;44.760;37.678;2023-06-19T01:35:37;20.87;73.73
74923;HTU21D;64715;44.760;37.678;2023-06-19T01:36:40;20.84;73.71
74923;HTU21D;64715;44.760;37.678;2023-06-19T01:37:41;20.84;73.85
74923;HTU21D;64715;44.760;37.678;2023-06-19T01:38:44;20.81;73.84
74923;HTU21D;64715;44.760;37.678;2023-06-19T01:39:47;20.78;73.82
74923;HTU21D;64715;44.760;37.678;2023-06-19T01:40:49;20.75;73.78
74923;HTU21D;64715;44.760;37.678;2023-06-19T01:41:52;20.73;73.85
74923;HTU21D;64715;44.760;37.678;2023-06-19T01:42:55;20.71;73.89
74923;HTU21D;64715;44.760;37.678;2023-06-19T01:43:57;20.68;73.99
74923;HTU21D;64715;44.760;37.678;2023-06-19T01:44:58;20.66;74.13
74923;HTU21D;64715;44.760;37.678;2023-06-19T01:46:01;20.62;73.94
74923;HTU21D;64715;44.760;37.678;2023-06-19T01:47:11;20.61;74.17
74923;HTU21D;64715;44.760;37.678;2023-06-19T01:48:14;20.60;74.21
74923;HTU21D;64715;44.760;37.678;2023-06-19T01:49:16;20.58;74.18
74923;HTU21D;64715;44.760;37.678;2023-06-19T01:50:17;20.57;74.12
74923;HTU21D;64715;44.760;37.678;2023-06-19T01:51:19;20.55;74.28
74923;HTU21D;64715;44.760;37.678;2023-06-19T01:52:20;20.54;74.34
74923;HTU21D;64715;44.760;37.678;2023-06-19T01:53:21;20.53;74.32
74923;HTU21D;64715;44.760;37.678;2023-06-19T01:54:22;20.51;74.43
74923;HTU21D;64715;44.760;37.678;2023-06-19T01:55:23;20.48;74.52
74923;HTU21D;64715;44.760;37.678;2023-06-19T01:56:24;20.47;74.58
74923;HTU21D;64715;44.760;37.678;2023-06-19T01:57:25;20.45;74.66
74923;HTU21D;64715;44.760;37.678;2023-06-19T01:58:27;20.44;74.71
74923;HTU21D;64715;44.760;37.678;2023-06-19T01:59:28;20.45;74.60
74923;HTU21D;64715;44.760;37.678;2023-06-19T02:00:29;20.44;74.88
74923;HTU21D;64715;44.760;37.678;2023-06-19T02:01:32;20.42;74.76
74923;HTU21D;64715;44.760;37.678;2023-06-19T02:02:38;20.42;74.87
74923;HTU21D;64715;44.760;37.678;2023-06-19T02:03:39;20.41;74.91
74923;HTU21D;64715;44.760;37.678;2023-06-19T02:04:40;20.40;74.90
74923;HTU21D;64715;44.760;37.678;2023-06-19T02:05:42;20.40;75.06
74923;HTU21D;64715;44.760;37.678;2023-06-19T02:06:43;20.40;75.09
74923;HTU21D;64715;44.760;37.678;2023-06-19T02:07:44;20.40;75.15
74923;HTU21D;64715;44.760;37.678;2023-06-19T02:08:45;20.41;75.25
74923;HTU21D;64715;44.760;37.678;2023-06-19T02:09:48;20.43;75.43
74923;HTU21D;64715;44.760;37.678;2023-06-19T02:10:50;20.48;75.39
74923;HTU21D;64715;44.760;37.678;2023-06-19T02:11:51;20.56;75.70
74923;HTU21D;64715;44.760;37.678;2023-06-19T02:12:51;20.64;75.68
74923;HTU21D;64715;44.760;37.678;2023-06-19T02:13:53;20.74;75.85
74923;HTU21D;64715;44.760;37.678;2023-06-19T02:14:54;20.87;75.84
74923;HTU21D;64715;44.760;37.678;2023-06-19T02:15:55;21.00;75.97
74923;HTU21D;64715;44.760;37.678;2023-06-19T02:16:59;21.17;75.77
74923;HTU21D;64715;44.760;37.678;2023-06-19T02:18:00;21.34;75.72
74923;HTU21D;64715;44.760;37.678;2023-06-19T02:19:01;21.51;75.59
74923;HTU21D;64715;44.760;37.678;2023-06-19T02:20:03;21.69;75.52
74923;HTU21D;64715;44.760;37.678;2023-06-19T02:21:08;21.92;75.41
74923;HTU21D;64715;44.760;37.678;2023-06-19T02:22:09;22.10;75.35
74923;HTU21D;64715;44.760;37.678;2023-06-19T02:23:10;22.34;74.86
74923;HTU21D;64715;44.760;37.678;2023-06-19T02:24:11;22.55;74.59
74923;HTU21D;64715;44.760;37.678;2023-06-19T02:25:13;22.77;74.36
74923;HTU21D;64715;44.760;37.678;2023-06-19T02:26:17;23.02;73.97
74923;HTU21D;64715;44.760;37.678;2023-06-19T02:27:21;23.22;73.54
74923;HTU21D;64715;44.760;37.678;2023-06-19T02:28:22;23.42;73.07
74923;HTU21D;64715;44.760;37.678;2023-06-19T02:29:25;23.64;72.83
74923;HTU21D;64715;44.760;37.678;2023-06-19T02:30:26;23.84;72.54
74923;HTU21D;64715;44.760;37.678;2023-06-19T02:31:27;24.04;72.28
74923;HTU21D;64715;44.760;37.678;2023-06-19T02:32:27;24.25;71.79
74923;HTU21D;64715;44.760;37.678;2023-06-19T02:33:29;24.42;71.42
74923;HTU21D;64715;44.760;37.678;2023-06-19T02:34:30;24.56;70.88
74923;HTU21D;64715;44.760;37.678;2023-06-19T02:35:31;24.65;70.56
74923;HTU21D;64715;44.760;37.678;2023-06-19T02:36:32;24.70;70.15
74923;HTU21D;64715;44.760;37.678;2023-06-19T02:37:33;24.71;69.84
74923;HTU21D;64715;44.760;37.678;2023-06-19T02:38:36;24.66;69.66
74923;HTU21D;64715;44.760;37.678;2023-06-19T02:39:37;24.60;69.45
74923;HTU21D;64715;44.760;37.678;2023-06-19T02:40:38;24.54;69.29
74923;HTU21D;64715;44.760;37.678;2023-06-19T02:41:41;24.47;69.22
74923;HTU21D;64715;44.760;37.678;2023-06-19T02:42:46;24.41;68.97
74923;HTU21D;64715;44.760;37.678;2023-06-19T02:43:48;24.33;68.98
74923;HTU21D;64715;44.760;37.678;2023-06-19T02:44:50;24.26;68.94
74923;HTU21D;64715;44.760;37.678;2023-06-19T02:45:51;24.19;68.81
74923;HTU21D;64715;44.760;37.678;2023-06-19T02:46:52;24.13;68.87
74923;HTU21D;64715;44.760;37.678;2023-06-19T02:47:53;24.09;68.92
74923;HTU21D;64715;44.760;37.678;2023-06-19T02:48:54;24.03;68.87
74923;HTU21D;64715;44.760;37.678;2023-06-19T02:49:58;23.97;68.85
74923;HTU21D;64715;44.760;37.678;2023-06-19T02:50:59;23.91;68.96
74923;HTU21D;64715;44.760;37.678;2023-06-19T02:52:01;23.86;68.98
74923;HTU21D;64715;44.760;37.678;2023-06-19T02:53:01;23.83;69.06
74923;HTU21D;64715;44.760;37.678;2023-06-19T02:54:03;23.79;69.05
74923;HTU21D;64715;44.760;37.678;2023-06-19T02:55:04;23.74;69.22
74923;HTU21D;64715;44.760;37.678;2023-06-19T02:56:07;23.75;69.29
74923;HTU21D;64715;44.760;37.678;2023-06-19T02:57:08;23.79;69.50
74923;HTU21D;64715;44.760;37.678;2023-06-19T02:58:10;23.84;69.71
74923;HTU21D;64715;44.760;37.678;2023-06-19T02:59:12;23.91;69.49
74923;HTU21D;64715;44.760;37.678;2023-06-19T03:00:14;23.99;69.47
74923;HTU21D;64715;44.760;37.678;2023-06-19T03:01:17;24.01;69.29
74923;HTU21D;64715;44.760;37.678;2023-06-19T03:02:19;24.02;69.11
74923;HTU21D;64715;44.760;37.678;2023-06-19T03:03:20;24.01;69.01
74923;HTU21D;64715;44.760;37.678;2023-06-19T03:04:21;24.00;68.96
74923;HTU21D;64715;44.760;37.678;2023-06-19T03:05:23;23.97;68.96
74923;HTU21D;64715;44.760;37.678;2023-06-19T03:06:24;23.91;69.03
74923;HTU21D;64715;44.760;37.678;2023-06-19T03:07:26;23.87;68.96
74923;HTU21D;64715;44.760;37.678;2023-06-19T03:08:29;23.83;69.11
74923;HTU21D;64715;44.760;37.678;2023-06-19T03:09:31;23.80;69.01
74923;HTU21D;64715;44.760;37.678;2023-06-19T03:10:32;23.75;69.15
74923;HTU21D;64715;44.760;37.678;2023-06-19T03:11:33;23.71;69.07
74923;HTU21D;64715;44.760;37.678;2023-06-19T03:12:34;23.66;69.26
74923;HTU21D;64715;44.760;37.678;2023-06-19T03:13:46;23.59;69.39
74923;HTU21D;64715;44.760;37.678;2023-06-19T03:14:47;23.52;69.39
74923;HTU21D;64715;44.760;37.678;2023-06-19T03:15:48;23.46;69.65
74923;HTU21D;64715;44.760;37.678;2023-06-19T03:16:49;23.40;69.67
74923;HTU21D;64715;44.760;37.678;2023-06-19T03:17:52;23.37;69.85
74923;HTU21D;64715;44.760;37.678;2023-06-19T03:18:53;23.31;70.00
74923;HTU21D;64715;44.760;37.678;2023-06-19T03:19:57;23.30;69.97
74923;HTU21D;64715;44.760;37.678;2023-06-19T03:20:58;23.29;70.13
74923;HTU21D;64715;44.760;37.678;2023-06-19T03:21:59;23.27;70.20
74923;HTU21D;64715;44.760;37.678;2023-06-19T03:23:00;23.26;70.30
74923;HTU21D;64715;44.760;37.678;2023-06-19T03:24:03;23.24;70.33
74923;HTU21D;64715;44.760;37.678;2023-06-19T03:25:04;23.22;70.41
74923;HTU21D;64715;44.760;37.678;2023-06-19T03:26:10;23.21;70.52
74923;HTU21D;64715;44.760;37.678;2023-06-19T03:27:13;23.23;70.59
74923;HTU21D;64715;44.760;37.678;2023-06-19T03:28:14;23.25;70.56
74923;HTU21D;64715;44.760;37.678;2023-06-19T03:29:16;23.26;70.68
74923;HTU21D;64715;44.760;37.678;2023-06-19T03:30:37;23.31;70.78
74923;HTU21D;64715;44.760;37.678;2023-06-19T03:31:38;23.42;70.88
74923;HTU21D;64715;44.760;37.678;2023-06-19T03:32:40;23.59;71.06
74923;HTU21D;64715;44.760;37.678;2023-06-19T03:33:43;23.79;70.79
74923;HTU21D;64715;44.760;37.678;2023-06-19T03:34:46;24.05;70.86
74923;HTU21D;64715;44.760;37.678;2023-06-19T03:35:47;24.46;70.76
74923;HTU21D;64715;44.760;37.678;2023-06-19T03:36:59;25.05;70.17
74923;HTU21D;64715;44.760;37.678;2023-06-19T03:38:00;25.48;69.29
74923;HTU21D;64715;44.760;37.678;2023-06-19T03:39:01;25.84;68.58
74923;HTU21D;64715;44.760;37.678;2023-06-19T03:40:05;26.21;68.00
74923;HTU21D;64715;44.760;37.678;2023-06-19T03:41:11;26.76;67.63
74923;HTU21D;64715;44.760;37.678;2023-06-19T03:42:13;27.37;67.06
74923;HTU21D;64715;44.760;37.678;2023-06-19T03:43:13;28.08;65.98
74923;HTU21D;64715;44.760;37.678;2023-06-19T03:44:17;28.85;64.79
74923;HTU21D;64715;44.760;37.678;2023-06-19T03:45:18;29.62;63.48
74923;HTU21D;64715;44.760;37.678;2023-06-19T03:46:20;30.37;62.15
74923;HTU21D;64715;44.760;37.678;2023-06-19T03:47:21;31.08;60.88
74923;HTU21D;64715;44.760;37.678;2023-06-19T03:48:22;31.78;59.46
74923;HTU21D;64715;44.760;37.678;2023-06-19T03:49:23;32.46;58.26
74923;HTU21D;64715;44.760;37.678;2023-06-19T03:50:25;33.09;57.03
74923;HTU21D;64715;44.760;37.678;2023-06-19T03:51:25;33.68;55.69
74923;HTU21D;64715;44.760;37.678;2023-06-19T03:52:27;34.24;54.42
74923;HTU21D;64715;44.760;37.678;2023-06-19T03:53:28;34.74;53.07
74923;HTU21D;64715;44.760;37.678;2023-06-19T03:54:28;35.15;52.14
74923;HTU21D;64715;44.760;37.678;2023-06-19T03:55:29;35.58;51.07
74923;HTU21D;64715;44.760;37.678;2023-06-19T03:56:31;35.99;49.95
74923;HTU21D;64715;44.760;37.678;2023-06-19T03:57:32;36.39;48.76
74923;HTU21D;64715;44.760;37.678;2023-06-19T03:58:32;36.72;47.86
74923;HTU21D;64715;44.760;37.678;2023-06-19T03:59:34;37.01;46.95
74923;HTU21D;64715;44.760;37.678;2023-06-19T04:00:35;37.33;46.20
74923;HTU21D;64715;44.760;37.678;2023-06-19T04:01:36;37.64;45.42
74923;HTU21D;64715;44.760;37.678;2023-06-19T04:02:37;37.94;44.51
74923;HTU21D;64715;44.760;37.678;2023-06-19T04:03:38;38.20;43.68
74923;HTU21D;64715;44.760;37.678;2023-06-19T04:04:39;38.43;43.22
74923;HTU21D;64715;44.760;37.678;2023-06-19T04:05:40;38.67;42.39
74923;HTU21D;64715;44.760;37.678;2023-06-19T04:06:42;38.80;41.82
74923;HTU21D;64715;44.760;37.678;2023-06-19T04:07:43;38.84;41.16
74923;HTU21D;64715;44.760;37.678;2023-06-19T04:08:45;38.79;40.68
74923;HTU21D;64715;44.760;37.678;2023-06-19T04:09:47;38.64;40.50
74923;HTU21D;64715;44.760;37.678;2023-06-19T04:10:48;38.55;40.22
74923;HTU21D;64715;44.760;37.678;2023-06-19T04:11:49;38.46;39.92
74923;HTU21D;64715;44.760;37.678;2023-06-19T04:12:50;38.29;39.93
74923;HTU21D;64715;44.760;37.678;2023-06-19T04:13:51;38.14;39.78
74923;HTU21D;64715;44.760;37.678;2023-06-19T04:14:52;38.06;39.55
74923;HTU21D;64715;44.760;37.678;2023-06-19T04:15:54;38.05;39.42
74923;HTU21D;64715;44.760;37.678;2023-06-19T04:16:55;38.07;39.20
74923;HTU21D;64715;44.760;37.678;2023-06-19T04:17:57;38.09;38.98
74923;HTU21D;64715;44.760;37.678;2023-06-19T04:18:58;38.11;38.78
74923;HTU21D;64715;44.760;37.678;2023-06-19T04:19:59;38.05;38.43
74923;HTU21D;64715;44.760;37.678;2023-06-19T04:21:00;37.89;38.30
74923;HTU21D;64715;44.760;37.678;2023-06-19T04:22:01;37.72;38.46
74923;HTU21D;64715;44.760;37.678;2023-06-19T04:23:02;37.51;38.34
74923;HTU21D;64715;44.760;37.678;2023-06-19T04:24:03;37.17;38.33
74923;HTU21D;64715;44.760;37.678;2023-06-19T04:25:07;36.85;38.60
74923;HTU21D;64715;44.760;37.678;2023-06-19T04:26:08;36.59;39.08
74923;HTU21D;64715;44.760;37.678;2023-06-19T04:27:09;36.46;39.44
74923;HTU21D;64715;44.760;37.678;2023-06-19T04:28:10;36.48;39.61
74923;HTU21D;64715;44.760;37.678;2023-06-19T04:29:11;36.63;39.42
74923;HTU21D;64715;44.760;37.678;2023-06-19T04:30:17;36.78;39.33
74923;HTU21D;64715;44.760;37.678;2023-06-19T04:31:18;36.90;39.25
74923;HTU21D;64715;44.760;37.678;2023-06-19T04:32:19;37.05;39.04
74923;HTU21D;64715;44.760;37.678;2023-06-19T04:33:20;37.31;38.91
74923;HTU21D;64715;44.760;37.678;2023-06-19T04:34:21;37.61;38.46
74923;HTU21D;64715;44.760;37.678;2023-06-19T04:35:22;37.79;38.11
74923;HTU21D;64715;44.760;37.678;2023-06-19T04:36:24;37.92;37.76
74923;HTU21D;64715;44.760;37.678;2023-06-19T04:37:25;38.05;37.66
74923;HTU21D;64715;44.760;37.678;2023-06-19T04:38:26;38.12;37.62
74923;HTU21D;64715;44.760;37.678;2023-06-19T04:39:27;38.31;37.33
74923;HTU21D;64715;44.760;37.678;2023-06-19T04:40:28;38.37;36.95
74923;HTU21D;64715;44.760;37.678;2023-06-19T04:41:28;38.28;36.92
74923;HTU21D;64715;44.760;37.678;2023-06-19T04:42:30;38.20;36.75
74923;HTU21D;64715;44.760;37.678;2023-06-19T04:43:31;38.09;36.59
74923;HTU21D;64715;44.760;37.678;2023-06-19T04:44:34;38.02;36.56
74923;HTU21D;64715;44.760;37.678;2023-06-19T04:45:35;38.08;36.43
74923;HTU21D;64715;44.760;37.678;2023-06-19T04:46:36;38.11;36.37
74923;HTU21D;64715;44.760;37.678;2023-06-19T04:47:38;38.19;36.05
74923;HTU21D;64715;44.760;37.678;2023-06-19T04:48:39;38.25;35.72
74923;HTU21D;64715;44.760;37.678;2023-06-19T04:49:41;38.35;35.54
74923;HTU21D;64715;44.760;37.678;2023-06-19T04:50:42;38.47;35.49
74923;HTU21D;64715;44.760;37.678;2023-06-19T04:51:43;38.65;35.19
74923;HTU21D;64715;44.760;37.678;2023-06-19T04:52:44;38.74;34.99
74923;HTU21D;64715;44.760;37.678;2023-06-19T04:53:45;38.79;34.85
74923;HTU21D;64715;44.760;37.678;2023-06-19T04:54:46;38.91;34.73
74923;HTU21D;64715;44.760;37.678;2023-06-19T04:55:49;39.10;34.41
74923;HTU21D;64715;44.760;37.678;2023-06-19T04:56:50;39.22;34.08
74923;HTU21D;64715;44.760;37.678;2023-06-19T04:57:51;39.30;33.90
74923;HTU21D;64715;44.760;37.678;2023-06-19T04:58:52;39.43;33.80
74923;HTU21D;64715;44.760;37.678;2023-06-19T04:59:56;39.64;33.50
74923;HTU21D;64715;44.760;37.678;2023-06-19T05:00:57;39.84;33.23
74923;HTU21D;64715;44.760;37.678;2023-06-19T05:01:58;40.07;32.96
74923;HTU21D;64715;44.760;37.678;2023-06-19T05:02:59;40.29;32.72
74923;HTU21D;64715;44.760;37.678;2023-06-19T05:04:01;40.46;32.30
74923;HTU21D;64715;44.760;37.678;2023-06-19T05:05:02;40.52;32.08
74923;HTU21D;64715;44.760;37.678;2023-06-19T05:06:06;40.52;31.99
74923;HTU21D;64715;44.760;37.678;2023-06-19T05:07:06;40.48;32.15
74923;HTU21D;64715;44.760;37.678;2023-06-19T05:08:07;40.56;32.02
74923;HTU21D;64715;44.760;37.678;2023-06-19T05:09:08;40.60;31.86
74923;HTU21D;64715;44.760;37.678;2023-06-19T05:10:09;40.50;31.60
74923;HTU21D;64715;44.760;37.678;2023-06-19T05:11:11;40.25;31.74
74923;HTU21D;64715;44.760;37.678;2023-06-19T05:12:12;40.16;31.91
74923;HTU21D;64715;44.760;37.678;2023-06-19T05:13:13;40.11;32.00
74923;HTU21D;64715;44.760;37.678;2023-06-19T05:14:14;40.04;31.98
74923;HTU21D;64715;44.760;37.678;2023-06-19T05:15:15;40.00;32.05
74923;HTU21D;64715;44.760;37.678;2023-06-19T05:16:16;40.06;32.09
74923;HTU21D;64715;44.760;37.678;2023-06-19T05:17:20;40.15;31.83
74923;HTU21D;64715;44.760;37.678;2023-06-19T05:18:21;40.13;31.65
74923;HTU21D;64715;44.760;37.678;2023-06-19T05:19:22;40.10;31.55
74923;HTU21D;64715;44.760;37.678;2023-06-19T05:20:23;40.08;31.20
74923;HTU21D;64715;44.760;37.678;2023-06-19T05:21:24;39.95;31.11
74923;HTU21D;64715;44.760;37.678;2023-06-19T05:22:25;39.72;30.93
74923;HTU21D;64715;44.760;37.678;2023-06-19T05:23:27;39.32;31.16
74923;HTU21D;64715;44.760;37.678;2023-06-19T05:24:28;38.91;31.44
74923;HTU21D;64715;44.760;37.678;2023-06-19T05:25:29;38.47;31.73
74923;HTU21D;64715;44.760;37.678;2023-06-19T05:26:30;38.03;32.02
74923;HTU21D;64715;44.760;37.678;2023-06-19T05:27:30;37.60;32.57
74923;HTU21D;64715;44.760;37.678;2023-06-19T05:28:32;37.25;33.09
74923;HTU21D;64715;44.760;37.678;2023-06-19T05:29:33;37.02;33.60
74923;HTU21D;64715;44.760;37.678;2023-06-19T05:30:34;36.88;33.92
74923;HTU21D;64715;44.760;37.678;2023-06-19T05:31:36;36.77;34.08
74923;HTU21D;64715;44.760;37.678;2023-06-19T05:32:37;36.68;34.37
74923;HTU21D;64715;44.760;37.678;2023-06-19T05:33:38;36.58;34.52
74923;HTU21D;64715;44.760;37.678;2023-06-19T05:34:39;36.53;34.70
74923;HTU21D;64715;44.760;37.678;2023-06-19T05:35:40;36.47;34.82
74923;HTU21D;64715;44.760;37.678;2023-06-19T05:36:41;36.42;35.08
74923;HTU21D;64715;44.760;37.678;2023-06-19T05:37:43;36.30;35.44
74923;HTU21D;64715;44.760;37.678;2023-06-19T05:38:44;36.17;35.85
74923;HTU21D;64715;44.760;37.678;2023-06-19T05:39:45;36.09;35.92
74923;HTU21D;64715;44.760;37.678;2023-06-19T05:40:46;35.97;36.11
74923;HTU21D;64715;44.760;37.678;2023-06-19T05:41:47;35.92;36.36
74923;HTU21D;64715;44.760;37.678;2023-06-19T05:42:48;35.93;36.29
74923;HTU21D;64715;44.760;37.678;2023-06-19T05:43:49;35.84;36.45
74923;HTU21D;64715;44.760;37.678;2023-06-19T05:44:49;35.74;36.47
74923;HTU21D;64715;44.760;37.678;2023-06-19T05:45:51;35.65;36.59
74923;HTU21D;64715;44.760;37.678;2023-06-19T05:46:54;35.54;36.52
74923;HTU21D;64715;44.760;37.678;2023-06-19T05:47:54;35.35;36.74
74923;HTU21D;64715;44.760;37.678;2023-06-19T05:48:55;35.16;36.94
74923;HTU21D;64715;44.760;37.678;2023-06-19T05:49:58;34.99;37.18
74923;HTU21D;64715;44.760;37.678;2023-06-19T05:50:59;34.89;37.46
74923;HTU21D;64715;44.760;37.678;2023-06-19T05:52:00;34.75;37.53
74923;HTU21D;64715;44.760;37.678;2023-06-19T05:53:03;34.62;37.85
74923;HTU21D;64715;44.760;37.678;2023-06-19T05:54:04;34.49;38.17
74923;HTU21D;64715;44.760;37.678;2023-06-19T05:55:05;34.41;38.21
74923;HTU21D;64715;44.760;37.678;2023-06-19T05:56:06;34.35;38.36
74923;HTU21D;64715;44.760;37.678;2023-06-19T05:57:07;34.32;38.50
74923;HTU21D;64715;44.760;37.678;2023-06-19T05:58:08;34.30;38.56
74923;HTU21D;64715;44.760;37.678;2023-06-19T05:59:11;34.20;38.53
74923;HTU21D;64715;44.760;37.678;2023-06-19T06:00:15;34.10;38.75
74923;HTU21D;64715;44.760;37.678;2023-06-19T06:01:16;34.05;38.80
74923;HTU21D;64715;44.760;37.678;2023-06-19T06:02:19;33.97;38.78
74923;HTU21D;64715;44.760;37.678;2023-06-19T06:03:20;33.90;38.85
74923;HTU21D;64715;44.760;37.678;2023-06-19T06:04:21;33.83;38.93
74923;HTU21D;64715;44.760;37.678;2023-06-19T06:05:22;33.75;39.04
74923;HTU21D;64715;44.760;37.678;2023-06-19T06:06:25;33.67;39.27
74923;HTU21D;64715;44.760;37.678;2023-06-19T06:07:26;33.63;39.27
74923;HTU21D;64715;44.760;37.678;2023-06-19T06:08:30;33.50;39.26
74923;HTU21D;64715;44.760;37.678;2023-06-19T06:09:31;33.40;39.07
74923;HTU21D;64715;44.760;37.678;2023-06-19T06:10:33;33.25;39.37
74923;HTU21D;64715;44.760;37.678;2023-06-19T06:11:34;33.19;39.70
74923;HTU21D;64715;44.760;37.678;2023-06-19T06:12:35;33.14;39.79
74923;HTU21D;64715;44.760;37.678;2023-06-19T06:13:36;33.09;39.85
74923;HTU21D;64715;44.760;37.678;2023-06-19T06:14:38;33.02;39.73
74923;HTU21D;64715;44.760;37.678;2023-06-19T06:15:39;32.93;39.85
74923;HTU21D;64715;44.760;37.678;2023-06-19T06:16:40;32.90;40.00
74923;HTU21D;64715;44.760;37.678;2023-06-19T06:17:43;32.85;39.96
74923;HTU21D;64715;44.760;37.678;2023-06-19T06:18:45;32.82;39.90
74923;HTU21D;64715;44.760;37.678;2023-06-19T06:19:46;32.78;39.91
74923;HTU21D;64715;44.760;37.678;2023-06-19T06:20:47;32.81;40.01
74923;HTU21D;64715;44.760;37.678;2023-06-19T06:21:48;32.77;40.20